createdAt,value
2023-04-26T00:00:09.573Z,76.11
2023-04-26T00:02:38.231Z,76.30
2023-04-26T00:05:09.575Z,76.07
2023-04-26T00:07:41.285Z,76.49
2023-04-26T00:10:09.738Z,77.21
2023-04-26T00:12:37.772Z,77.15
2023-04-26T00:15:05.844Z,77.17
2023-04-26T00:17:34.213Z,77.18
2023-04-26T00:20:03.349Z,77.31
2023-04-26T00:22:31.722Z,77.50
2023-04-26T00:24:59.434Z,77.87
2023-04-26T00:27:27.352Z,77.95
2023-04-26T00:29:56.786Z,78.21
2023-04-26T00:32:24.527Z,78.15
2023-04-26T00:34:52.906Z,77.95
2023-04-26T00:37:21.788Z,78.07
2023-04-26T00:39:49.586Z,78.12
2023-04-26T00:42:19.648Z,78.35
2023-04-26T00:44:47.265Z,78.60
2023-04-26T00:47:15.454Z,78.65
2023-04-26T00:49:43.356Z,79.25
2023-04-26T00:52:11.258Z,79.35
2023-04-26T00:54:41.147Z,79.30
2023-04-26T00:57:10.265Z,79.68
2023-04-26T00:59:39.369Z,80.21
2023-04-26T01:02:07.323Z,80.58
2023-04-26T01:04:35.493Z,81.27
2023-04-26T01:07:04.055Z,81.40
2023-04-26T01:09:34.773Z,81.91
2023-04-26T01:12:02.669Z,81.50
2023-04-26T01:14:30.525Z,82.94
2023-04-26T01:16:58.694Z,85.81
2023-04-26T01:19:26.390Z,84.01
2023-04-26T01:21:54.028Z,82.81
2023-04-26T01:24:22.785Z,84.30
2023-04-26T01:26:50.865Z,83.50
2023-04-26T01:29:27.392Z,83.53
2023-04-26T01:31:55.082Z,83.38
2023-04-26T01:34:23.036Z,83.12
2023-04-26T01:36:51.324Z,83.31
2023-04-26T01:39:19.375Z,83.41
2023-04-26T01:41:47.650Z,83.54
2023-04-26T01:44:15.904Z,82.81
2023-04-26T01:46:43.652Z,82.98
2023-04-26T01:49:15.101Z,82.05
2023-04-26T01:51:42.897Z,82.00
2023-04-26T01:54:11.681Z,81.89
2023-04-26T01:56:39.694Z,81.61
2023-04-26T01:59:07.587Z,81.38
2023-04-26T02:01:37.616Z,80.90
2023-04-26T02:04:06.742Z,81.09
2023-04-26T02:06:35.814Z,82.00
2023-04-26T02:09:04.536Z,81.29
2023-04-26T02:11:32.822Z,82.05
2023-04-26T02:14:00.942Z,82.04
2023-04-26T02:16:28.929Z,81.74
2023-04-26T02:18:56.998Z,81.18
2023-04-26T02:21:27.379Z,80.71
2023-04-26T02:23:55.445Z,80.51
2023-04-26T02:26:23.267Z,80.07
2023-04-26T02:28:52.274Z,80.10
2023-04-26T02:31:22.814Z,79.91
2023-04-26T02:33:51.217Z,79.58
2023-04-26T02:36:19.090Z,79.57
2023-04-26T02:38:46.782Z,79.75
2023-04-26T02:41:14.567Z,79.55
2023-04-26T02:43:43.608Z,79.31
2023-04-26T02:46:12.024Z,79.25
2023-04-26T02:48:40.042Z,79.25
2023-04-26T02:51:09.025Z,79.26
2023-04-26T02:53:36.792Z,79.13
2023-04-26T02:56:04.719Z,79.07
2023-04-26T02:58:32.587Z,79.16
2023-04-26T03:01:01.885Z,79.06
2023-04-26T03:03:33.977Z,79.00
2023-04-26T03:06:03.304Z,78.73
2023-04-26T03:08:31.240Z,78.78
2023-04-26T03:10:59.269Z,78.58
2023-04-26T03:13:28.277Z,78.37
2023-04-26T03:15:58.872Z,77.84
2023-04-26T03:18:26.836Z,77.55
2023-04-26T03:20:55.119Z,77.37
2023-04-26T03:23:25.594Z,76.95
2023-04-26T03:25:54.748Z,77.05
2023-04-26T03:28:24.100Z,77.14
2023-04-26T03:30:52.072Z,77.35
2023-04-26T03:33:21.115Z,76.93
2023-04-26T03:35:48.915Z,75.41
2023-04-26T03:38:18.377Z,72.12
2023-04-26T03:40:46.540Z,69.23
2023-04-26T03:43:14.555Z,66.97
2023-04-26T03:45:48.018Z,64.88
2023-04-26T03:48:17.200Z,63.74
2023-04-26T03:50:46.308Z,62.38
2023-04-26T03:53:14.358Z,60.45
2023-04-26T03:55:42.898Z,58.83
2023-04-26T03:58:10.658Z,59.20
2023-04-26T04:00:38.772Z,57.94
2023-04-26T04:03:08.276Z,56.64
2023-04-26T04:05:36.456Z,56.61
2023-04-26T04:08:04.805Z,55.66
2023-04-26T04:10:32.744Z,55.85
2023-04-26T04:13:00.753Z,55.18
2023-04-26T04:15:29.060Z,55.12
2023-04-26T04:17:57.762Z,55.13
2023-04-26T04:20:27.081Z,53.75
2023-04-26T04:22:58.917Z,54.15
2023-04-26T04:25:27.414Z,54.08
2023-04-26T04:27:58.867Z,53.97
2023-04-26T04:30:26.809Z,52.28
2023-04-26T04:32:55.098Z,52.12
2023-04-26T04:35:23.441Z,51.71
2023-04-26T04:37:52.162Z,50.96
2023-04-26T04:40:19.967Z,50.06
2023-04-26T04:42:51.087Z,49.92
2023-04-26T04:45:21.721Z,49.65
2023-04-26T04:47:50.788Z,50.44
2023-04-26T04:50:18.816Z,49.95
2023-04-26T04:52:47.288Z,49.51
2023-04-26T04:55:17.623Z,49.35
2023-04-26T04:57:45.651Z,48.46
2023-04-26T05:00:14.559Z,47.36
2023-04-26T05:02:53.585Z,47.18
2023-04-26T05:05:21.532Z,45.85
2023-04-26T05:07:49.383Z,45.95
2023-04-26T05:10:17.937Z,46.39
2023-04-26T05:12:46.752Z,46.34
2023-04-26T05:15:16.387Z,45.68
2023-04-26T05:17:44.276Z,46.12
2023-04-26T05:20:20.930Z,45.46
2023-04-26T05:22:49.890Z,45.16
2023-04-26T05:25:19.244Z,44.78
2023-04-26T05:27:50.794Z,44.80
2023-04-26T05:30:48.159Z,45.38
2023-04-26T05:33:51.949Z,46.35
2023-04-26T05:36:30.844Z,48.00
2023-04-26T05:38:58.602Z,49.32
2023-04-26T05:41:26.471Z,49.52
2023-04-26T05:43:55.710Z,49.31
2023-04-26T05:46:24.078Z,49.79
2023-04-26T05:48:52.276Z,49.55
2023-04-26T05:51:21.547Z,50.39
2023-04-26T05:53:50.031Z,50.68
2023-04-26T05:56:18.086Z,51.25
2023-04-26T05:58:45.581Z,52.07
2023-04-26T06:01:13.953Z,51.37
2023-04-26T06:03:45.109Z,51.52
2023-04-26T06:06:13.061Z,53.03
2023-04-26T06:08:42.965Z,51.58
2023-04-26T06:11:11.826Z,53.04
2023-04-26T06:13:39.410Z,49.62
2023-04-26T06:16:09.289Z,49.80
2023-04-26T06:18:37.102Z,49.54
2023-04-26T06:21:05.329Z,49.24
2023-04-26T06:23:32.977Z,48.24
2023-04-26T06:26:01.263Z,50.65
2023-04-26T06:28:28.869Z,50.57
2023-04-26T06:30:56.628Z,50.00
2023-04-26T06:33:25.328Z,50.71
2023-04-26T06:35:53.210Z,50.55
2023-04-26T06:38:21.602Z,50.76
2023-04-26T06:40:49.181Z,51.33
2023-04-26T06:43:18.138Z,51.80
2023-04-26T06:45:57.157Z,51.80
2023-04-26T06:48:24.808Z,52.01
2023-04-26T06:50:52.432Z,52.06
2023-04-26T06:53:22.933Z,51.73
2023-04-26T06:55:50.681Z,52.31
2023-04-26T06:58:18.691Z,52.84
2023-04-26T07:00:46.129Z,52.50
2023-04-26T07:03:13.737Z,52.25
2023-04-26T07:05:41.645Z,52.32
2023-04-26T07:08:09.311Z,54.11
2023-04-26T07:10:38.119Z,53.79
2023-04-26T07:13:07.965Z,53.69
2023-04-26T07:15:36.906Z,54.17
2023-04-26T07:18:04.411Z,52.48
2023-04-26T07:20:32.397Z,54.21
2023-04-26T07:23:00.160Z,54.35
2023-04-26T07:25:27.710Z,54.53
2023-04-26T07:27:55.160Z,53.75
2023-04-26T07:30:22.708Z,53.33
2023-04-26T07:32:50.516Z,53.49
2023-04-26T07:35:18.092Z,53.05
2023-04-26T07:37:45.665Z,53.48
2023-04-26T07:40:13.788Z,52.90
2023-04-26T07:42:42.026Z,54.29
2023-04-26T07:45:10.325Z,53.81
2023-04-26T07:47:38.482Z,54.14
2023-04-26T07:50:06.644Z,54.63
2023-04-26T07:52:34.444Z,54.24
2023-04-26T07:55:02.152Z,55.65
2023-04-26T07:57:29.897Z,55.33
2023-04-26T07:59:57.954Z,55.54
2023-04-26T08:02:33.238Z,54.85
2023-04-26T08:05:05.692Z,55.17
2023-04-26T08:07:33.283Z,54.57
2023-04-26T08:10:01.042Z,53.64
2023-04-26T08:12:28.507Z,53.79
2023-04-26T08:14:56.177Z,52.72
2023-04-26T08:17:23.692Z,51.42
2023-04-26T08:19:51.608Z,52.77
2023-04-26T08:22:19.979Z,51.84
2023-04-26T08:24:50.172Z,50.44
2023-04-26T08:27:19.185Z,51.05
2023-04-26T08:29:46.856Z,49.91
2023-04-26T08:32:14.600Z,48.93
2023-04-26T08:34:42.719Z,49.12
2023-04-26T08:37:11.228Z,49.19
2023-04-26T08:39:39.836Z,49.41
2023-04-26T08:42:13.831Z,50.07
2023-04-26T08:44:45.127Z,48.95
2023-04-26T08:47:28.627Z,48.21
2023-04-26T08:50:01.075Z,46.78
2023-04-26T08:52:29.245Z,46.53
2023-04-26T08:55:00.404Z,47.86
2023-04-26T08:57:27.891Z,46.72
2023-04-26T08:59:56.300Z,46.59
2023-04-26T09:02:24.337Z,45.97
2023-04-26T09:04:52.255Z,44.74
2023-04-26T09:07:31.019Z,45.67
2023-04-26T09:09:59.000Z,45.05
2023-04-26T09:12:26.529Z,43.06
2023-04-26T09:14:54.830Z,43.99
2023-04-26T09:17:32.754Z,44.62
2023-04-26T09:20:01.016Z,43.70
2023-04-26T09:22:30.221Z,42.50
2023-04-26T09:24:58.105Z,43.80
2023-04-26T09:27:35.194Z,41.29
2023-04-26T09:30:11.241Z,39.73
2023-04-26T09:32:56.742Z,40.51
2023-04-26T09:35:32.668Z,41.58
2023-04-26T09:38:12.345Z,40.28
2023-04-26T09:40:41.905Z,40.70
2023-04-26T09:43:11.815Z,37.49
2023-04-26T09:45:58.449Z,39.39
2023-04-26T09:48:30.862Z,38.80
2023-04-26T09:50:59.710Z,37.42
2023-04-26T09:53:41.880Z,37.96
2023-04-26T09:56:10.120Z,38.61
2023-04-26T09:59:00.795Z,38.30
2023-04-26T10:01:33.341Z,39.29
2023-04-26T10:04:04.900Z,38.80
2023-04-26T10:06:33.087Z,39.52
2023-04-26T10:09:01.801Z,40.13
2023-04-26T10:11:29.353Z,38.91
2023-04-26T10:13:56.805Z,40.16
2023-04-26T10:16:24.429Z,38.71
2023-04-26T10:18:52.717Z,40.17
2023-04-26T10:21:27.672Z,39.66
2023-04-26T10:23:55.162Z,39.28
2023-04-26T10:26:57.651Z,37.84
2023-04-26T10:29:26.225Z,39.06
2023-04-26T10:32:03.000Z,37.50
2023-04-26T10:34:34.015Z,36.28
2023-04-26T10:37:11.281Z,36.20
2023-04-26T10:39:39.817Z,33.98
2023-04-26T10:58:50.768Z,34.30
2023-04-26T11:01:24.011Z,34.13
2023-04-26T11:04:12.554Z,35.74
2023-04-26T11:06:58.012Z,35.07
2023-04-26T11:09:36.268Z,35.58
2023-04-26T11:12:04.867Z,35.88
2023-04-26T11:14:35.338Z,34.57
2023-04-26T11:17:06.533Z,35.36
2023-04-26T11:19:35.706Z,36.32
2023-04-26T11:22:07.022Z,35.56
2023-04-26T11:24:39.268Z,35.01
2023-04-26T11:27:11.685Z,35.26
2023-04-26T11:29:40.908Z,34.92
2023-04-26T11:32:09.398Z,37.05
2023-04-26T11:34:41.783Z,36.16
2023-04-26T11:37:09.602Z,35.71
2023-04-26T11:39:37.437Z,35.30
2023-04-26T11:42:08.998Z,36.61
2023-04-26T11:44:37.485Z,36.78
2023-04-26T11:47:08.270Z,36.88
2023-04-26T11:49:38.911Z,38.00
2023-04-26T11:52:06.665Z,38.38
2023-04-26T11:54:36.194Z,37.29
2023-04-26T11:57:17.053Z,36.24
2023-04-26T11:59:46.175Z,37.44
2023-04-26T12:02:14.403Z,36.82
2023-04-26T12:04:42.390Z,37.55
2023-04-26T12:07:10.821Z,36.22
2023-04-26T12:09:41.824Z,35.71
2023-04-26T12:12:10.236Z,37.44
2023-04-26T12:14:40.134Z,36.58
2023-04-26T12:17:07.959Z,36.44
2023-04-26T12:19:40.256Z,36.09
2023-04-26T12:22:08.473Z,37.30
2023-04-26T12:24:38.065Z,36.40
2023-04-26T12:27:07.309Z,36.16
2023-04-26T12:29:35.133Z,36.68
2023-04-26T12:32:03.129Z,36.24
2023-04-26T12:34:31.132Z,34.51
2023-04-26T12:36:58.959Z,35.33
2023-04-26T12:39:26.611Z,34.86
2023-04-26T12:41:55.244Z,34.30
2023-04-26T12:44:22.941Z,33.83
2023-04-26T12:46:51.444Z,35.03
2023-04-26T12:49:18.963Z,33.96
2023-04-26T12:51:46.773Z,35.65
2023-04-26T12:54:14.393Z,34.63
2023-04-26T12:56:44.509Z,34.59
2023-04-26T12:59:12.116Z,33.98
2023-04-26T13:01:39.873Z,33.50
2023-04-26T13:04:07.838Z,33.10
2023-04-26T13:06:37.845Z,34.41
2023-04-26T13:09:08.003Z,34.16
2023-04-26T13:11:35.806Z,33.27
2023-04-26T13:14:03.251Z,33.06
2023-04-26T13:16:32.528Z,31.72
2023-04-26T13:19:00.182Z,31.40
2023-04-26T13:21:27.717Z,30.99
2023-04-26T13:23:55.172Z,31.70
2023-04-26T13:26:24.389Z,32.45
2023-04-26T13:28:52.810Z,32.62
2023-04-26T13:31:20.506Z,31.78
2023-04-26T13:33:49.809Z,31.19
2023-04-26T13:36:17.503Z,30.87
2023-04-26T13:38:45.193Z,31.32
2023-04-26T13:41:13.177Z,32.06
2023-04-26T13:43:41.116Z,33.65
2023-04-26T13:46:08.749Z,33.59
2023-04-26T13:48:36.517Z,33.33
2023-04-26T13:51:06.995Z,33.82
2023-04-26T13:53:34.968Z,33.94
2023-04-26T13:56:02.550Z,33.63
2023-04-26T13:58:30.181Z,33.95
2023-04-26T14:00:57.622Z,33.74
2023-04-26T14:03:26.990Z,33.81
2023-04-26T14:05:55.160Z,32.67
2023-04-26T14:08:22.911Z,31.96
2023-04-26T14:10:51.774Z,30.94
2023-04-26T14:13:19.734Z,30.21
2023-04-26T14:15:47.735Z,29.25
2023-04-26T14:18:17.504Z,28.77
2023-04-26T14:20:45.216Z,28.36
2023-04-26T14:23:12.674Z,28.38
2023-04-26T14:25:41.540Z,29.10
2023-04-26T14:28:09.055Z,30.49
2023-04-26T14:30:36.638Z,30.29
2023-04-26T14:33:05.258Z,31.92
2023-04-26T14:35:32.782Z,31.65
2023-04-26T14:38:00.519Z,30.72
2023-04-26T14:40:28.157Z,30.59
2023-04-26T14:42:56.401Z,29.98
2023-04-26T14:45:33.406Z,30.83
2023-04-26T14:48:11.984Z,31.35
2023-04-26T14:50:40.094Z,30.40
2023-04-26T14:53:08.220Z,29.86
2023-04-26T14:55:37.296Z,29.61
2023-04-26T14:58:04.982Z,30.75
2023-04-26T15:00:32.665Z,29.38
2023-04-26T15:03:00.379Z,28.55
2023-04-26T15:05:27.930Z,28.41
2023-04-26T15:07:55.574Z,29.81
2023-04-26T15:10:24.716Z,30.42
2023-04-26T15:12:52.569Z,29.10
2023-04-26T15:15:20.070Z,29.46
2023-04-26T15:17:47.760Z,29.99
2023-04-26T15:20:15.874Z,29.84
2023-04-26T15:22:43.714Z,29.55
2023-04-26T15:25:11.478Z,29.79
2023-04-26T15:27:40.430Z,30.26
2023-04-26T15:30:11.654Z,30.94
2023-04-26T15:32:40.379Z,30.45
2023-04-26T15:35:08.154Z,30.75
2023-04-26T15:37:37.219Z,31.75
2023-04-26T15:40:06.320Z,31.95
2023-04-26T15:42:33.936Z,32.19
2023-04-26T15:45:02.002Z,31.99
2023-04-26T15:47:30.130Z,32.60
2023-04-26T15:50:03.628Z,31.94
2023-04-26T15:52:36.868Z,32.23
2023-04-26T15:55:07.340Z,31.92
2023-04-26T15:57:35.151Z,32.54
2023-04-26T16:00:02.904Z,33.14
2023-04-26T16:02:32.305Z,33.46
2023-04-26T16:05:00.061Z,36.04
2023-04-26T16:07:27.623Z,37.75
2023-04-26T16:09:55.163Z,37.62
2023-04-26T16:12:23.385Z,38.59
2023-04-26T16:14:52.013Z,39.46
2023-04-26T16:17:19.521Z,41.16
2023-04-26T16:19:48.495Z,40.63
2023-04-26T16:22:16.105Z,41.97
2023-04-26T16:24:43.899Z,42.01
2023-04-26T16:27:11.474Z,43.23
2023-04-26T16:29:39.213Z,45.41
2023-04-26T16:32:06.662Z,43.54
2023-04-26T16:34:34.440Z,44.57
2023-04-26T16:37:01.900Z,44.47
2023-04-26T16:39:29.540Z,44.54
2023-04-26T16:41:57.609Z,44.83
2023-04-26T16:44:25.349Z,45.71
2023-04-26T16:46:52.826Z,45.94
2023-04-26T16:49:21.013Z,45.52
2023-04-26T16:51:58.922Z,45.44
2023-04-26T16:54:26.675Z,45.42
2023-04-26T16:56:54.174Z,45.61
2023-04-26T16:59:21.684Z,47.14
2023-04-26T17:01:49.277Z,48.27
2023-04-26T17:04:16.955Z,47.03
2023-04-26T17:06:45.261Z,47.67
2023-04-26T17:09:13.109Z,47.36
2023-04-26T17:11:43.668Z,47.72
2023-04-26T17:14:11.279Z,47.96
2023-04-26T17:16:38.806Z,48.34
2023-04-26T17:19:06.946Z,48.70
2023-04-26T17:21:34.611Z,49.26
2023-04-26T17:24:02.193Z,49.59
2023-04-26T17:26:30.616Z,50.27
2023-04-26T17:28:58.260Z,50.72
2023-04-26T17:31:25.724Z,51.29
2023-04-26T17:33:53.202Z,51.36
2023-04-26T17:36:20.820Z,52.19
2023-04-26T17:38:48.727Z,52.82
2023-04-26T17:41:19.045Z,54.06
2023-04-26T17:43:46.604Z,53.69
2023-04-26T17:46:14.454Z,53.35
2023-04-26T17:48:41.929Z,53.01
2023-04-26T17:51:09.625Z,53.21
2023-04-26T17:53:37.447Z,53.62
2023-04-26T17:56:07.678Z,53.57
2023-04-26T17:58:35.156Z,53.92
2023-04-26T18:01:02.921Z,54.45
2023-04-26T18:03:31.569Z,54.30
2023-04-26T18:05:59.487Z,54.28
2023-04-26T18:08:27.447Z,54.35
2023-04-26T18:10:55.987Z,54.39
2023-04-26T18:13:25.316Z,54.59
2023-04-26T18:15:55.016Z,54.86
2023-04-26T18:18:24.578Z,54.92
2023-04-26T18:20:54.068Z,55.26
2023-04-26T18:23:22.088Z,55.82
2023-04-26T18:25:50.666Z,55.81
2023-04-26T18:28:18.616Z,56.15
2023-04-26T18:30:46.441Z,57.34
2023-04-26T18:33:14.292Z,58.22
2023-04-26T18:35:42.104Z,58.14
2023-04-26T18:38:09.821Z,58.17
2023-04-26T18:40:37.550Z,58.51
2023-04-26T18:43:05.191Z,59.81
2023-04-26T18:45:34.605Z,61.41
2023-04-26T18:48:02.248Z,62.66
2023-04-26T18:50:31.416Z,63.31
2023-04-26T18:52:59.113Z,64.68
2023-04-26T18:55:26.935Z,64.28
2023-04-26T18:57:54.945Z,64.13
2023-04-26T19:00:22.754Z,63.66
2023-04-26T19:02:51.313Z,63.23
2023-04-26T19:05:19.542Z,62.94
2023-04-26T19:07:47.705Z,62.96
2023-04-26T19:10:16.725Z,62.66
2023-04-26T19:12:44.695Z,62.81
2023-04-26T19:15:12.344Z,62.74
2023-04-26T19:17:40.473Z,62.50
2023-04-26T19:20:12.673Z,62.52
2023-04-26T19:22:42.202Z,62.44
2023-04-26T19:25:10.520Z,62.98
2023-04-26T19:27:38.662Z,65.08
2023-04-26T19:30:07.304Z,67.02
2023-04-26T19:32:35.492Z,66.91
2023-04-26T19:35:06.241Z,67.67
2023-04-26T19:37:33.961Z,67.96
2023-04-26T19:40:01.743Z,69.01
2023-04-26T19:42:29.740Z,68.08
2023-04-26T19:44:58.458Z,68.87
2023-04-26T19:47:26.306Z,69.17
2023-04-26T19:49:55.645Z,69.11
2023-04-26T19:52:23.355Z,69.16
2023-04-26T19:54:54.703Z,68.86
2023-04-26T19:57:23.131Z,69.89
2023-04-26T19:59:50.721Z,70.24
2023-04-26T20:02:18.390Z,69.44
2023-04-26T20:04:46.208Z,68.83
2023-04-26T20:07:14.133Z,68.28
2023-04-26T20:09:41.632Z,67.54
2023-04-26T20:12:10.136Z,67.54
2023-04-26T20:14:37.988Z,67.44
2023-04-26T20:17:06.182Z,67.27
2023-04-26T20:19:34.414Z,68.01
2023-04-26T20:22:01.974Z,68.84
2023-04-26T20:24:29.883Z,68.63
2023-04-26T20:26:57.909Z,68.76
2023-04-26T20:29:26.097Z,68.88
2023-04-26T20:31:53.691Z,69.26
2023-04-26T20:34:21.584Z,69.67
2023-04-26T20:36:49.537Z,69.62
2023-04-26T20:39:17.276Z,69.60
2023-04-26T20:41:45.357Z,70.26
2023-04-26T20:44:13.277Z,70.31
2023-04-26T20:46:41.387Z,70.67
2023-04-26T20:49:09.366Z,70.97
2023-04-26T20:51:37.742Z,71.44
2023-04-26T20:54:05.284Z,72.06
2023-04-26T20:56:33.578Z,72.52
2023-04-26T20:59:02.116Z,72.43
2023-04-26T21:01:30.858Z,73.36
2023-04-26T21:03:58.597Z,72.92
2023-04-26T21:06:27.471Z,72.90
2023-04-26T21:08:55.214Z,73.11
2023-04-26T21:11:23.283Z,73.88
2023-04-26T21:13:51.242Z,73.50
2023-04-26T21:16:19.408Z,73.75
2023-04-26T21:18:47.799Z,73.76
2023-04-26T21:21:15.946Z,73.70
2023-04-26T21:23:44.215Z,73.82
2023-04-26T21:26:12.319Z,74.25
2023-04-26T21:28:40.401Z,74.38
2023-04-26T21:31:09.397Z,74.30
2023-04-26T21:33:37.535Z,74.65
2023-04-26T21:36:05.826Z,74.48
2023-04-26T21:38:35.828Z,74.61
2023-04-26T21:41:03.854Z,74.82
2023-04-26T21:43:32.020Z,74.89
2023-04-26T21:45:59.979Z,74.86
2023-04-26T21:48:28.270Z,74.94
2023-04-26T21:50:56.508Z,75.09
2023-04-26T21:53:24.737Z,75.50
2023-04-26T21:55:52.934Z,75.51
2023-04-26T21:58:21.512Z,76.11
2023-04-26T22:00:49.994Z,76.77
2023-04-26T22:03:19.336Z,77.33
2023-04-26T22:05:47.685Z,77.56
2023-04-26T22:08:17.359Z,77.04
2023-04-26T22:10:45.638Z,77.03
2023-04-26T22:13:14.226Z,76.64
2023-04-26T22:15:43.089Z,76.35
2023-04-26T22:18:11.866Z,76.93
2023-04-26T22:20:40.610Z,78.53
2023-04-26T22:23:09.452Z,79.57
2023-04-26T22:25:38.195Z,79.98
2023-04-26T22:28:07.405Z,79.66
2023-04-26T22:30:37.010Z,79.27
2023-04-26T22:33:07.390Z,78.09
2023-04-26T22:35:36.189Z,78.13
2023-04-26T22:38:05.938Z,77.81
2023-04-26T22:40:36.612Z,77.34
2023-04-26T22:43:05.990Z,76.90
2023-04-26T22:45:35.123Z,76.60
2023-04-26T22:48:04.728Z,76.64
2023-04-26T22:50:33.520Z,76.80
2023-04-26T22:53:02.274Z,76.75
2023-04-26T22:55:31.798Z,76.57
2023-04-26T22:57:59.806Z,76.47
2023-04-26T23:00:27.854Z,76.53
2023-04-26T23:02:57.454Z,76.26
2023-04-26T23:05:25.919Z,75.97
2023-04-26T23:07:55.099Z,75.81
2023-04-26T23:10:24.997Z,75.96
2023-04-26T23:12:54.001Z,76.12
2023-04-26T23:15:22.125Z,76.46
2023-04-26T23:17:51.027Z,76.62
2023-04-26T23:20:19.768Z,76.89
2023-04-26T23:22:47.777Z,77.42
2023-04-26T23:25:15.734Z,77.35
2023-04-26T23:27:44.078Z,77.70
2023-04-26T23:30:14.530Z,78.65
2023-04-26T23:32:42.973Z,78.85
2023-04-26T23:35:11.379Z,78.34
2023-04-26T23:37:39.733Z,78.18
2023-04-26T23:40:10.562Z,78.26
2023-04-26T23:42:38.682Z,78.25
2023-04-26T23:45:08.100Z,78.50
2023-04-26T23:47:36.160Z,78.30
2023-04-26T23:50:04.521Z,78.28
2023-04-26T23:52:32.662Z,78.29
2023-04-26T23:55:00.528Z,78.20
2023-04-26T23:57:28.384Z,78.13
2023-04-26T23:59:56.662Z,78.35
